Ouro Preto do Oeste, Brazil
Current Conditions -  °F | °C
As of 1:00 PM on Monday 22 Dec 2014 (Local Time) from SBPV Reporting Station
Broken Clouds Broken Clouds  
Wind Chill: 88°   Ceiling: 10000
Heat Index: 96°   Visibility: 6mi
Dew Point: 73°   Wind: 13mph
Humidity: 62%   Direction: 40°NE
Pressure: 29.85"   Gusts: NA
Location:  10.66°S, 62.31°W
Report Text: SBPV 221700Z 04011KT 9999 SCT020 BKN100 31/23 Q1011
Loading
Personal Weather Stations






























Interactive Weather Map New forecast layout! Learn more

10-Day Weather Forecast

Advertisements
Track Severe Weather on mobile